sensor_id;sensor_type;location;lat;lon;timestamp;temperature;humidity
11559;DHT22;5835;42.930;25.178;2024-02-28T00:01:38;5.70;1.00
11559;DHT22;5835;42.930;25.178;2024-02-28T00:04:05;5.50;1.00
11559;DHT22;5835;42.930;25.178;2024-02-28T00:06:34;5.40;99.90
11559;DHT22;5835;42.930;25.178;2024-02-28T00:09:01;5.40;99.90
11559;DHT22;5835;42.930;25.178;2024-02-28T00:11:29;5.40;99.90
11559;DHT22;5835;42.930;25.178;2024-02-28T00:13:57;5.30;99.90
11559;DHT22;5835;42.930;25.178;2024-02-28T00:16:26;5.30;99.90
11559;DHT22;5835;42.930;25.178;2024-02-28T00:18:53;5.30;99.90
11559;DHT22;5835;42.930;25.178;2024-02-28T00:21:21;5.40;1.00
11559;DHT22;5835;42.930;25.178;2024-02-28T00:23:50;5.40;99.90
11559;DHT22;5835;42.930;25.178;2024-02-28T00:26:17;5.30;99.90
11559;DHT22;5835;42.930;25.178;2024-02-28T00:28:45;5.50;1.00
11559;DHT22;5835;42.930;25.178;2024-02-28T00:31:12;5.50;99.90
11559;DHT22;5835;42.930;25.178;2024-02-28T00:33:40;5.40;99.90
11559;DHT22;5835;42.930;25.178;2024-02-28T00:36:07;5.40;99.90
11559;DHT22;5835;42.930;25.178;2024-02-28T00:38:35;5.40;1.00
11559;DHT22;5835;42.930;25.178;2024-02-28T00:41:03;5.50;1.00
11559;DHT22;5835;42.930;25.178;2024-02-28T00:43:31;5.50;1.00
11559;DHT22;5835;42.930;25.178;2024-02-28T00:45:58;5.50;1.00
11559;DHT22;5835;42.930;25.178;2024-02-28T00:48:26;5.40;99.90
11559;DHT22;5835;42.930;25.178;2024-02-28T00:50:53;5.40;99.90
11559;DHT22;5835;42.930;25.178;2024-02-28T00:53:21;5.40;1.00
11559;DHT22;5835;42.930;25.178;2024-02-28T00:55:48;5.50;99.90
11559;DHT22;5835;42.930;25.178;2024-02-28T00:58:18;5.50;99.90
11559;DHT22;5835;42.930;25.178;2024-02-28T01:00:46;5.50;99.90
11559;DHT22;5835;42.930;25.178;2024-02-28T01:03:14;5.50;99.90
11559;DHT22;5835;42.930;25.178;2024-02-28T01:05:44;5.60;99.90
11559;DHT22;5835;42.930;25.178;2024-02-28T01:08:12;5.40;99.90
11559;DHT22;5835;42.930;25.178;2024-02-28T01:10:40;5.40;99.90
11559;DHT22;5835;42.930;25.178;2024-02-28T01:13:07;5.30;26.00
11559;DHT22;5835;42.930;25.178;2024-02-28T01:15:36;4.90;1.00
11559;DHT22;5835;42.930;25.178;2024-02-28T01:18:03;4.90;1.00
11559;DHT22;5835;42.930;25.178;2024-02-28T01:20:31;4.80;99.90
11559;DHT22;5835;42.930;25.178;2024-02-28T01:22:58;4.80;99.90
11559;DHT22;5835;42.930;25.178;2024-02-28T01:25:26;4.70;99.90
11559;DHT22;5835;42.930;25.178;2024-02-28T01:27:55;4.80;1.00
11559;DHT22;5835;42.930;25.178;2024-02-28T01:30:23;4.90;1.00
11559;DHT22;5835;42.930;25.178;2024-02-28T01:32:52;4.80;1.00
11559;DHT22;5835;42.930;25.178;2024-02-28T01:35:20;4.90;34.90
11559;DHT22;5835;42.930;25.178;2024-02-28T01:37:48;4.90;37.60
11559;DHT22;5835;42.930;25.178;2024-02-28T01:40:15;5.10;21.40
11559;DHT22;5835;42.930;25.178;2024-02-28T01:42:43;5.00;1.00
11559;DHT22;5835;42.930;25.178;2024-02-28T01:45:13;4.90;1.00
11559;DHT22;5835;42.930;25.178;2024-02-28T01:47:41;4.90;1.00
11559;DHT22;5835;42.930;25.178;2024-02-28T01:50:11;4.60;99.90
11559;DHT22;5835;42.930;25.178;2024-02-28T01:52:39;4.50;1.00
11559;DHT22;5835;42.930;25.178;2024-02-28T01:55:07;4.50;8.40
11559;DHT22;5835;42.930;25.178;2024-02-28T01:57:36;4.70;63.20
11559;DHT22;5835;42.930;25.178;2024-02-28T02:00:06;4.60;7.50
11559;DHT22;5835;42.930;25.178;2024-02-28T02:02:34;4.60;58.30
11559;DHT22;5835;42.930;25.178;2024-02-28T02:05:02;4.60;89.80
11559;DHT22;5835;42.930;25.178;2024-02-28T02:07:31;4.50;61.70
11559;DHT22;5835;42.930;25.178;2024-02-28T02:09:58;4.50;94.20
11559;DHT22;5835;42.930;25.178;2024-02-28T02:12:26;4.60;99.90
11559;DHT22;5835;42.930;25.178;2024-02-28T02:14:53;4.70;67.30
11559;DHT22;5835;42.930;25.178;2024-02-28T02:17:21;4.60;32.80
11559;DHT22;5835;42.930;25.178;2024-02-28T02:19:48;4.30;1.00
11559;DHT22;5835;42.930;25.178;2024-02-28T02:22:18;4.30;1.00
11559;DHT22;5835;42.930;25.178;2024-02-28T02:24:48;4.30;5.90
11559;DHT22;5835;42.930;25.178;2024-02-28T02:27:16;4.40;57.90
11559;DHT22;5835;42.930;25.178;2024-02-28T02:29:43;4.20;69.40
11559;DHT22;5835;42.930;25.178;2024-02-28T02:32:11;4.10;92.80
11559;DHT22;5835;42.930;25.178;2024-02-28T02:34:38;4.10;99.90
11559;DHT22;5835;42.930;25.178;2024-02-28T02:37:06;4.10;99.90
11559;DHT22;5835;42.930;25.178;2024-02-28T02:39:34;4.00;99.90
11559;DHT22;5835;42.930;25.178;2024-02-28T02:42:03;4.20;99.90
11559;DHT22;5835;42.930;25.178;2024-02-28T02:44:31;4.20;99.90
11559;DHT22;5835;42.930;25.178;2024-02-28T02:46:58;4.30;99.90
11559;DHT22;5835;42.930;25.178;2024-02-28T02:49:26;4.30;99.90
11559;DHT22;5835;42.930;25.178;2024-02-28T02:51:53;4.30;99.90
11559;DHT22;5835;42.930;25.178;2024-02-28T02:54:21;4.40;99.90
11559;DHT22;5835;42.930;25.178;2024-02-28T02:56:48;4.50;99.90
11559;DHT22;5835;42.930;25.178;2024-02-28T02:59:18;4.60;99.90
11559;DHT22;5835;42.930;25.178;2024-02-28T03:01:49;4.60;99.90
11559;DHT22;5835;42.930;25.178;2024-02-28T03:04:17;4.50;96.80
11559;DHT22;5835;42.930;25.178;2024-02-28T03:06:45;4.60;64.10
11559;DHT22;5835;42.930;25.178;2024-02-28T03:09:12;4.60;44.50
11559;DHT22;5835;42.930;25.178;2024-02-28T03:11:40;4.70;1.00
11559;DHT22;5835;42.930;25.178;2024-02-28T03:14:07;4.70;1.00
11559;DHT22;5835;42.930;25.178;2024-02-28T03:16:41;4.70;1.00
11559;DHT22;5835;42.930;25.178;2024-02-28T03:19:09;4.40;1.00
11559;DHT22;5835;42.930;25.178;2024-02-28T03:21:37;4.10;69.10
11559;DHT22;5835;42.930;25.178;2024-02-28T03:24:04;4.10;99.90
11559;DHT22;5835;42.930;25.178;2024-02-28T03:26:32;4.30;99.90
11559;DHT22;5835;42.930;25.178;2024-02-28T03:28:59;4.30;99.90
11559;DHT22;5835;42.930;25.178;2024-02-28T03:31:27;4.50;99.90
11559;DHT22;5835;42.930;25.178;2024-02-28T03:33:56;4.30;99.90
11559;DHT22;5835;42.930;25.178;2024-02-28T03:36:23;4.20;99.90
11559;DHT22;5835;42.930;25.178;2024-02-28T03:38:51;4.30;99.90
11559;DHT22;5835;42.930;25.178;2024-02-28T03:41:18;4.50;99.90
11559;DHT22;5835;42.930;25.178;2024-02-28T03:43:46;4.50;99.90
11559;DHT22;5835;42.930;25.178;2024-02-28T03:46:13;4.40;99.90
11559;DHT22;5835;42.930;25.178;2024-02-28T03:48:41;4.00;99.90
11559;DHT22;5835;42.930;25.178;2024-02-28T03:51:10;3.90;99.90
11559;DHT22;5835;42.930;25.178;2024-02-28T03:53:37;3.80;99.90
11559;DHT22;5835;42.930;25.178;2024-02-28T03:56:05;3.70;99.90
11559;DHT22;5835;42.930;25.178;2024-02-28T03:58:32;3.50;99.90
11559;DHT22;5835;42.930;25.178;2024-02-28T04:01:00;3.60;99.90
11559;DHT22;5835;42.930;25.178;2024-02-28T04:03:27;3.30;99.90
11559;DHT22;5835;42.930;25.178;2024-02-28T04:05:54;3.30;99.90
11559;DHT22;5835;42.930;25.178;2024-02-28T04:08:23;3.30;99.90
11559;DHT22;5835;42.930;25.178;2024-02-28T04:10:51;3.30;99.90
11559;DHT22;5835;42.930;25.178;2024-02-28T04:13:18;3.30;99.90
11559;DHT22;5835;42.930;25.178;2024-02-28T04:15:46;3.50;99.90
11559;DHT22;5835;42.930;25.178;2024-02-28T04:18:13;3.60;99.90
11559;DHT22;5835;42.930;25.178;2024-02-28T04:20:40;3.70;99.90
11559;DHT22;5835;42.930;25.178;2024-02-28T04:23:08;3.70;99.90
11559;DHT22;5835;42.930;25.178;2024-02-28T04:25:37;3.80;99.90
11559;DHT22;5835;42.930;25.178;2024-02-28T04:28:06;3.90;99.90
11559;DHT22;5835;42.930;25.178;2024-02-28T04:30:34;3.90;99.90
11559;DHT22;5835;42.930;25.178;2024-02-28T04:33:02;3.80;99.90
11559;DHT22;5835;42.930;25.178;2024-02-28T04:35:29;3.80;99.90
11559;DHT22;5835;42.930;25.178;2024-02-28T04:37:57;3.80;99.90
11559;DHT22;5835;42.930;25.178;2024-02-28T04:40:24;3.80;99.90
11559;DHT22;5835;42.930;25.178;2024-02-28T04:42:54;3.90;99.90
11559;DHT22;5835;42.930;25.178;2024-02-28T04:45:21;3.90;99.90
11559;DHT22;5835;42.930;25.178;2024-02-28T04:47:48;3.80;99.90
11559;DHT22;5835;42.930;25.178;2024-02-28T04:50:17;3.90;99.90
11559;DHT22;5835;42.930;25.178;2024-02-28T04:52:46;4.00;99.90
11559;DHT22;5835;42.930;25.178;2024-02-28T04:55:14;4.00;99.90
11559;DHT22;5835;42.930;25.178;2024-02-28T04:57:42;4.00;99.90
11559;DHT22;5835;42.930;25.178;2024-02-28T05:00:11;4.20;99.90
11559;DHT22;5835;42.930;25.178;2024-02-28T05:02:39;4.20;99.90
11559;DHT22;5835;42.930;25.178;2024-02-28T05:05:07;4.20;99.90
11559;DHT22;5835;42.930;25.178;2024-02-28T05:07:34;4.20;99.90
11559;DHT22;5835;42.930;25.178;2024-02-28T05:10:02;4.20;99.90
11559;DHT22;5835;42.930;25.178;2024-02-28T05:12:29;4.30;99.90
11559;DHT22;5835;42.930;25.178;2024-02-28T05:14:57;4.40;99.90
11559;DHT22;5835;42.930;25.178;2024-02-28T05:17:25;4.50;99.90
11559;DHT22;5835;42.930;25.178;2024-02-28T05:19:53;4.30;99.90
11559;DHT22;5835;42.930;25.178;2024-02-28T05:22:20;4.30;99.90
11559;DHT22;5835;42.930;25.178;2024-02-28T05:24:48;4.20;99.90
11559;DHT22;5835;42.930;25.178;2024-02-28T05:27:16;4.10;99.90
11559;DHT22;5835;42.930;25.178;2024-02-28T05:29:43;4.00;99.90
11559;DHT22;5835;42.930;25.178;2024-02-28T05:32:11;4.10;99.90
11559;DHT22;5835;42.930;25.178;2024-02-28T05:34:40;4.20;99.90
11559;DHT22;5835;42.930;25.178;2024-02-28T05:37:07;4.20;99.90
11559;DHT22;5835;42.930;25.178;2024-02-28T05:39:35;4.20;99.90
11559;DHT22;5835;42.930;25.178;2024-02-28T05:42:03;4.40;99.90
11559;DHT22;5835;42.930;25.178;2024-02-28T05:44:31;4.30;99.90
11559;DHT22;5835;42.930;25.178;2024-02-28T05:46:58;4.30;99.90
11559;DHT22;5835;42.930;25.178;2024-02-28T05:49:26;4.30;99.90
11559;DHT22;5835;42.930;25.178;2024-02-28T05:51:55;4.40;99.90
11559;DHT22;5835;42.930;25.178;2024-02-28T05:54:22;4.50;99.90
11559;DHT22;5835;42.930;25.178;2024-02-28T05:56:50;4.70;99.90
11559;DHT22;5835;42.930;25.178;2024-02-28T05:59:18;4.70;99.90
11559;DHT22;5835;42.930;25.178;2024-02-28T06:01:46;4.70;99.90
11559;DHT22;5835;42.930;25.178;2024-02-28T06:04:13;4.70;99.90
11559;DHT22;5835;42.930;25.178;2024-02-28T06:06:41;4.80;99.90
11559;DHT22;5835;42.930;25.178;2024-02-28T06:09:10;4.80;99.90
11559;DHT22;5835;42.930;25.178;2024-02-28T06:11:38;5.00;99.90
11559;DHT22;5835;42.930;25.178;2024-02-28T06:14:05;5.20;99.90
11559;DHT22;5835;42.930;25.178;2024-02-28T06:16:33;5.40;99.90
11559;DHT22;5835;42.930;25.178;2024-02-28T06:19:00;5.70;99.90
11559;DHT22;5835;42.930;25.178;2024-02-28T06:21:28;5.90;99.90
11559;DHT22;5835;42.930;25.178;2024-02-28T06:23:55;6.10;99.90
11559;DHT22;5835;42.930;25.178;2024-02-28T06:26:24;6.20;99.90
11559;DHT22;5835;42.930;25.178;2024-02-28T06:28:53;6.40;99.90
11559;DHT22;5835;42.930;25.178;2024-02-28T06:31:26;6.40;99.90
11559;DHT22;5835;42.930;25.178;2024-02-28T06:33:55;6.50;90.50
11559;DHT22;5835;42.930;25.178;2024-02-28T06:36:22;6.50;47.30
11559;DHT22;5835;42.930;25.178;2024-02-28T06:38:50;6.60;60.70
11559;DHT22;5835;42.930;25.178;2024-02-28T06:41:17;6.80;27.90
11559;DHT22;5835;42.930;25.178;2024-02-28T06:43:46;6.90;21.60
11559;DHT22;5835;42.930;25.178;2024-02-28T06:46:14;7.00;1.00
11559;DHT22;5835;42.930;25.178;2024-02-28T06:48:41;7.10;1.00
11559;DHT22;5835;42.930;25.178;2024-02-28T06:51:09;7.10;1.00
11559;DHT22;5835;42.930;25.178;2024-02-28T06:53:36;7.00;99.90
11559;DHT22;5835;42.930;25.178;2024-02-28T06:56:04;7.00;99.90
11559;DHT22;5835;42.930;25.178;2024-02-28T06:58:32;6.90;50.10
11559;DHT22;5835;42.930;25.178;2024-02-28T07:01:00;7.00;99.90
11559;DHT22;5835;42.930;25.178;2024-02-28T07:03:28;7.10;99.90
11559;DHT22;5835;42.930;25.178;2024-02-28T07:05:56;7.20;1.00
11559;DHT22;5835;42.930;25.178;2024-02-28T07:08:23;7.50;99.90
11559;DHT22;5835;42.930;25.178;2024-02-28T07:10:51;7.70;1.00
11559;DHT22;5835;42.930;25.178;2024-02-28T07:13:19;7.70;16.90
11559;DHT22;5835;42.930;25.178;2024-02-28T07:15:47;7.60;99.90
11559;DHT22;5835;42.930;25.178;2024-02-28T07:18:17;7.70;1.00
11559;DHT22;5835;42.930;25.178;2024-02-28T07:20:44;7.70;1.00
11559;DHT22;5835;42.930;25.178;2024-02-28T07:23:12;7.60;1.00
11559;DHT22;5835;42.930;25.178;2024-02-28T07:25:39;7.70;99.90
11559;DHT22;5835;42.930;25.178;2024-02-28T07:28:07;7.70;99.90
11559;DHT22;5835;42.930;25.178;2024-02-28T07:30:34;7.80;99.90
11559;DHT22;5835;42.930;25.178;2024-02-28T07:33:02;7.80;1.00
11559;DHT22;5835;42.930;25.178;2024-02-28T07:35:37;7.80;1.00
11559;DHT22;5835;42.930;25.178;2024-02-28T07:38:10;7.80;1.00
11559;DHT22;5835;42.930;25.178;2024-02-28T07:40:37;7.80;99.90
11559;DHT22;5835;42.930;25.178;2024-02-28T07:43:05;8.00;1.00
11559;DHT22;5835;42.930;25.178;2024-02-28T07:45:32;8.20;99.90
11559;DHT22;5835;42.930;25.178;2024-02-28T07:48:00;8.30;1.00
11559;DHT22;5835;42.930;25.178;2024-02-28T07:50:28;8.40;99.90
11559;DHT22;5835;42.930;25.178;2024-02-28T07:52:57;8.40;99.90
11559;DHT22;5835;42.930;25.178;2024-02-28T07:55:24;8.50;26.30
11559;DHT22;5835;42.930;25.178;2024-02-28T07:57:52;8.70;1.00
11559;DHT22;5835;42.930;25.178;2024-02-28T08:00:20;8.70;99.90
11559;DHT22;5835;42.930;25.178;2024-02-28T08:02:48;8.80;86.70
11559;DHT22;5835;42.930;25.178;2024-02-28T08:05:16;8.80;1.00
11559;DHT22;5835;42.930;25.178;2024-02-28T08:07:44;8.90;1.00
11559;DHT22;5835;42.930;25.178;2024-02-28T08:10:13;9.10;99.90
11559;DHT22;5835;42.930;25.178;2024-02-28T08:12:40;9.20;99.90
11559;DHT22;5835;42.930;25.178;2024-02-28T08:15:09;9.40;60.50
11559;DHT22;5835;42.930;25.178;2024-02-28T08:17:36;9.50;1.00
11559;DHT22;5835;42.930;25.178;2024-02-28T08:20:05;9.80;1.00
11559;DHT22;5835;42.930;25.178;2024-02-28T08:22:34;9.80;99.90
11559;DHT22;5835;42.930;25.178;2024-02-28T08:25:01;9.90;99.90
11559;DHT22;5835;42.930;25.178;2024-02-28T08:27:30;10.20;8.70
11559;DHT22;5835;42.930;25.178;2024-02-28T08:30:00;10.30;1.00
11559;DHT22;5835;42.930;25.178;2024-02-28T08:32:30;10.40;1.00
11559;DHT22;5835;42.930;25.178;2024-02-28T08:34:58;10.70;99.90
11559;DHT22;5835;42.930;25.178;2024-02-28T08:37:25;10.70;99.90
11559;DHT22;5835;42.930;25.178;2024-02-28T08:39:54;10.90;33.80
11559;DHT22;5835;42.930;25.178;2024-02-28T08:42:24;11.00;1.00
11559;DHT22;5835;42.930;25.178;2024-02-28T08:44:53;11.20;1.00
11559;DHT22;5835;42.930;25.178;2024-02-28T08:47:23;11.30;1.00
11559;DHT22;5835;42.930;25.178;2024-02-28T08:49:51;11.60;1.00
11559;DHT22;5835;42.930;25.178;2024-02-28T08:52:19;11.70;99.90
11559;DHT22;5835;42.930;25.178;2024-02-28T08:54:47;11.70;99.90
11559;DHT22;5835;42.930;25.178;2024-02-28T08:57:15;11.90;67.20
11559;DHT22;5835;42.930;25.178;2024-02-28T08:59:42;12.20;6.00
11559;DHT22;5835;42.930;25.178;2024-02-28T09:02:11;12.40;1.00
11559;DHT22;5835;42.930;25.178;2024-02-28T09:04:39;12.60;1.00
11559;DHT22;5835;42.930;25.178;2024-02-28T09:07:07;12.80;1.00
11559;DHT22;5835;42.930;25.178;2024-02-28T09:09:34;13.00;1.00
11559;DHT22;5835;42.930;25.178;2024-02-28T09:12:04;13.10;1.00
11559;DHT22;5835;42.930;25.178;2024-02-28T09:14:31;13.20;99.90
11559;DHT22;5835;42.930;25.178;2024-02-28T09:16:59;13.30;99.90
11559;DHT22;5835;42.930;25.178;2024-02-28T09:19:30;13.60;99.90
11559;DHT22;5835;42.930;25.178;2024-02-28T09:21:58;13.60;99.90
11559;DHT22;5835;42.930;25.178;2024-02-28T09:24:26;13.80;99.90
11559;DHT22;5835;42.930;25.178;2024-02-28T09:26:54;13.90;99.90
11559;DHT22;5835;42.930;25.178;2024-02-28T09:29:21;14.10;99.90
11559;DHT22;5835;42.930;25.178;2024-02-28T09:31:49;14.20;99.90
11559;DHT22;5835;42.930;25.178;2024-02-28T09:34:16;14.20;99.90
11559;DHT22;5835;42.930;25.178;2024-02-28T09:36:45;14.30;99.90
11559;DHT22;5835;42.930;25.178;2024-02-28T09:39:13;14.40;96.90
11559;DHT22;5835;42.930;25.178;2024-02-28T09:41:41;14.50;81.70
11559;DHT22;5835;42.930;25.178;2024-02-28T09:44:09;14.50;57.70
11559;DHT22;5835;42.930;25.178;2024-02-28T09:46:36;14.70;37.80
11559;DHT22;5835;42.930;25.178;2024-02-28T09:49:04;14.90;29.00
11559;DHT22;5835;42.930;25.178;2024-02-28T09:51:33;15.00;10.90
11559;DHT22;5835;42.930;25.178;2024-02-28T09:54:03;15.10;1.00
11559;DHT22;5835;42.930;25.178;2024-02-28T09:56:30;15.00;1.00
11559;DHT22;5835;42.930;25.178;2024-02-28T09:58:59;15.20;1.00
11559;DHT22;5835;42.930;25.178;2024-02-28T10:01:29;15.50;1.00
11559;DHT22;5835;42.930;25.178;2024-02-28T10:03:57;15.40;1.00
11559;DHT22;5835;42.930;25.178;2024-02-28T10:06:26;15.60;1.00
11559;DHT22;5835;42.930;25.178;2024-02-28T10:08:53;15.60;1.00
11559;DHT22;5835;42.930;25.178;2024-02-28T10:11:23;15.50;1.00
11559;DHT22;5835;42.930;25.178;2024-02-28T10:13:52;15.70;1.00
11559;DHT22;5835;42.930;25.178;2024-02-28T10:16:21;15.90;1.00
11559;DHT22;5835;42.930;25.178;2024-02-28T10:18:48;16.00;1.00
11559;DHT22;5835;42.930;25.178;2024-02-28T10:21:19;16.00;1.00
11559;DHT22;5835;42.930;25.178;2024-02-28T10:23:46;15.90;1.00
11559;DHT22;5835;42.930;25.178;2024-02-28T10:26:14;15.90;1.00
11559;DHT22;5835;42.930;25.178;2024-02-28T10:28:43;16.30;1.00
11559;DHT22;5835;42.930;25.178;2024-02-28T10:31:11;16.40;1.00
11559;DHT22;5835;42.930;25.178;2024-02-28T10:33:41;16.40;1.00
11559;DHT22;5835;42.930;25.178;2024-02-28T10:36:09;16.60;1.00
11559;DHT22;5835;42.930;25.178;2024-02-28T10:38:37;16.50;1.00
11559;DHT22;5835;42.930;25.178;2024-02-28T10:41:06;16.80;1.00
11559;DHT22;5835;42.930;25.178;2024-02-28T10:43:33;16.90;1.00
11559;DHT22;5835;42.930;25.178;2024-02-28T10:46:03;17.00;1.00
11559;DHT22;5835;42.930;25.178;2024-02-28T10:48:31;17.20;1.00
11559;DHT22;5835;42.930;25.178;2024-02-28T10:50:59;17.10;1.00
11559;DHT22;5835;42.930;25.178;2024-02-28T10:53:35;17.40;1.00
11559;DHT22;5835;42.930;25.178;2024-02-28T10:56:04;17.30;1.00
11559;DHT22;5835;42.930;25.178;2024-02-28T10:58:37;17.40;1.00
11559;DHT22;5835;42.930;25.178;2024-02-28T11:01:08;17.60;1.00
11559;DHT22;5835;42.930;25.178;2024-02-28T11:03:36;17.60;1.00
11559;DHT22;5835;42.930;25.178;2024-02-28T11:06:04;17.80;1.00
11559;DHT22;5835;42.930;25.178;2024-02-28T11:08:46;17.70;1.00
11559;DHT22;5835;42.930;25.178;2024-02-28T11:11:14;18.20;1.00
11559;DHT22;5835;42.930;25.178;2024-02-28T11:13:52;17.90;1.00
11559;DHT22;5835;42.930;25.178;2024-02-28T11:16:29;17.80;1.00
11559;DHT22;5835;42.930;25.178;2024-02-28T11:18:56;17.70;1.00
11559;DHT22;5835;42.930;25.178;2024-02-28T11:21:24;18.20;1.00
11559;DHT22;5835;42.930;25.178;2024-02-28T11:23:57;18.30;1.00
11559;DHT22;5835;42.930;25.178;2024-02-28T11:26:25;18.40;1.00
11559;DHT22;5835;42.930;25.178;2024-02-28T11:28:53;19.10;1.00
11559;DHT22;5835;42.930;25.178;2024-02-28T11:31:21;19.20;1.00
11559;DHT22;5835;42.930;25.178;2024-02-28T11:33:50;19.00;1.00
11559;DHT22;5835;42.930;25.178;2024-02-28T11:36:18;18.90;1.00
11559;DHT22;5835;42.930;25.178;2024-02-28T11:38:45;19.10;1.00
11559;DHT22;5835;42.930;25.178;2024-02-28T11:41:13;19.10;1.00
11559;DHT22;5835;42.930;25.178;2024-02-28T11:43:40;19.00;1.00
11559;DHT22;5835;42.930;25.178;2024-02-28T11:46:08;19.00;1.00
11559;DHT22;5835;42.930;25.178;2024-02-28T11:48:36;19.30;1.00
11559;DHT22;5835;42.930;25.178;2024-02-28T11:51:06;19.40;1.00
11559;DHT22;5835;42.930;25.178;2024-02-28T11:53:33;19.30;1.00
11559;DHT22;5835;42.930;25.178;2024-02-28T11:56:00;19.30;1.00
11559;DHT22;5835;42.930;25.178;2024-02-28T11:58:29;19.10;1.00
11559;DHT22;5835;42.930;25.178;2024-02-28T12:00:57;19.10;1.00
11559;DHT22;5835;42.930;25.178;2024-02-28T12:03:25;19.20;1.00
11559;DHT22;5835;42.930;25.178;2024-02-28T12:05:54;19.20;1.00
11559;DHT22;5835;42.930;25.178;2024-02-28T12:08:23;19.20;1.00
11559;DHT22;5835;42.930;25.178;2024-02-28T12:10:52;19.40;1.00
11559;DHT22;5835;42.930;25.178;2024-02-28T12:13:20;19.40;1.00
11559;DHT22;5835;42.930;25.178;2024-02-28T12:15:50;19.40;1.00
11559;DHT22;5835;42.930;25.178;2024-02-28T12:18:18;19.20;1.00
11559;DHT22;5835;42.930;25.178;2024-02-28T12:20:45;18.70;1.00
11559;DHT22;5835;42.930;25.178;2024-02-28T12:23:14;18.80;1.00
11559;DHT22;5835;42.930;25.178;2024-02-28T12:25:45;18.70;1.00
11559;DHT22;5835;42.930;25.178;2024-02-28T12:28:12;18.80;1.00
11559;DHT22;5835;42.930;25.178;2024-02-28T12:30:42;19.20;1.00
11559;DHT22;5835;42.930;25.178;2024-02-28T12:33:10;19.10;1.00
11559;DHT22;5835;42.930;25.178;2024-02-28T12:35:38;19.10;1.00
11559;DHT22;5835;42.930;25.178;2024-02-28T12:38:07;19.00;1.00
11559;DHT22;5835;42.930;25.178;2024-02-28T12:40:35;19.10;1.00
11559;DHT22;5835;42.930;25.178;2024-02-28T12:43:04;19.20;1.00
11559;DHT22;5835;42.930;25.178;2024-02-28T12:45:32;19.30;1.00
11559;DHT22;5835;42.930;25.178;2024-02-28T12:47:59;19.40;1.00
11559;DHT22;5835;42.930;25.178;2024-02-28T12:50:27;19.40;1.00
11559;DHT22;5835;42.930;25.178;2024-02-28T12:52:54;19.40;1.00
11559;DHT22;5835;42.930;25.178;2024-02-28T12:55:22;19.40;1.00
11559;DHT22;5835;42.930;25.178;2024-02-28T12:57:49;19.30;1.00
11559;DHT22;5835;42.930;25.178;2024-02-28T13:00:18;19.20;1.00
11559;DHT22;5835;42.930;25.178;2024-02-28T13:02:47;19.40;1.00
11559;DHT22;5835;42.930;25.178;2024-02-28T13:05:14;19.50;1.00
11559;DHT22;5835;42.930;25.178;2024-02-28T13:07:42;19.40;1.00
11559;DHT22;5835;42.930;25.178;2024-02-28T13:10:09;19.30;1.00
11559;DHT22;5835;42.930;25.178;2024-02-28T13:12:37;19.10;1.00
11559;DHT22;5835;42.930;25.178;2024-02-28T13:15:06;19.30;1.00
11559;DHT22;5835;42.930;25.178;2024-02-28T13:17:35;19.40;1.00
11559;DHT22;5835;42.930;25.178;2024-02-28T13:20:03;19.40;1.00
11559;DHT22;5835;42.930;25.178;2024-02-28T13:22:31;19.30;1.00
11559;DHT22;5835;42.930;25.178;2024-02-28T13:24:58;19.30;1.00
11559;DHT22;5835;42.930;25.178;2024-02-28T13:27:26;19.40;1.00
11559;DHT22;5835;42.930;25.178;2024-02-28T13:29:54;19.30;1.00
11559;DHT22;5835;42.930;25.178;2024-02-28T13:32:21;19.20;1.00
11559;DHT22;5835;42.930;25.178;2024-02-28T13:34:51;19.30;1.00
11559;DHT22;5835;42.930;25.178;2024-02-28T13:37:18;19.50;1.00
11559;DHT22;5835;42.930;25.178;2024-02-28T13:39:45;19.50;1.00
11559;DHT22;5835;42.930;25.178;2024-02-28T13:42:13;19.50;1.00
11559;DHT22;5835;42.930;25.178;2024-02-28T13:44:40;19.60;1.00
11559;DHT22;5835;42.930;25.178;2024-02-28T13:47:08;19.40;1.00
11559;DHT22;5835;42.930;25.178;2024-02-28T13:49:36;19.40;1.00
11559;DHT22;5835;42.930;25.178;2024-02-28T13:52:05;19.10;1.00
11559;DHT22;5835;42.930;25.178;2024-02-28T13:54:33;19.30;1.00
11559;DHT22;5835;42.930;25.178;2024-02-28T13:57:01;19.20;1.00
11559;DHT22;5835;42.930;25.178;2024-02-28T13:59:30;19.30;1.00
11559;DHT22;5835;42.930;25.178;2024-02-28T14:01:58;19.00;1.00
11559;DHT22;5835;42.930;25.178;2024-02-28T14:04:26;19.20;1.00
11559;DHT22;5835;42.930;25.178;2024-02-28T14:06:53;18.60;1.00
11559;DHT22;5835;42.930;25.178;2024-02-28T14:09:22;18.10;1.00
11559;DHT22;5835;42.930;25.178;2024-02-28T14:11:50;17.90;1.00
11559;DHT22;5835;42.930;25.178;2024-02-28T14:14:17;17.70;1.00
11559;DHT22;5835;42.930;25.178;2024-02-28T14:16:45;17.50;1.00
11559;DHT22;5835;42.930;25.178;2024-02-28T14:19:12;17.50;1.00
11559;DHT22;5835;42.930;25.178;2024-02-28T14:21:40;17.40;1.00
11559;DHT22;5835;42.930;25.178;2024-02-28T14:24:07;17.10;1.00
11559;DHT22;5835;42.930;25.178;2024-02-28T14:26:36;16.90;1.00
11559;DHT22;5835;42.930;25.178;2024-02-28T14:29:04;16.70;1.00
11559;DHT22;5835;42.930;25.178;2024-02-28T14:31:32;16.80;1.00
11559;DHT22;5835;42.930;25.178;2024-02-28T14:34:00;16.90;1.00
11559;DHT22;5835;42.930;25.178;2024-02-28T14:36:30;17.00;1.00
11559;DHT22;5835;42.930;25.178;2024-02-28T14:38:58;17.10;1.00
11559;DHT22;5835;42.930;25.178;2024-02-28T14:41:25;16.80;1.00
11559;DHT22;5835;42.930;25.178;2024-02-28T14:43:54;16.70;1.00
11559;DHT22;5835;42.930;25.178;2024-02-28T14:46:21;16.60;1.00
11559;DHT22;5835;42.930;25.178;2024-02-28T14:48:49;16.40;1.00
11559;DHT22;5835;42.930;25.178;2024-02-28T14:51:18;16.30;1.00
11559;DHT22;5835;42.930;25.178;2024-02-28T14:53:46;16.30;1.00
11559;DHT22;5835;42.930;25.178;2024-02-28T14:56:14;16.30;1.00
11559;DHT22;5835;42.930;25.178;2024-02-28T14:58:42;16.20;1.00
11559;DHT22;5835;42.930;25.178;2024-02-28T15:01:11;16.10;1.00
11559;DHT22;5835;42.930;25.178;2024-02-28T15:03:39;16.00;1.00
11559;DHT22;5835;42.930;25.178;2024-02-28T15:06:07;15.80;1.00
11559;DHT22;5835;42.930;25.178;2024-02-28T15:08:36;15.70;1.00
11559;DHT22;5835;42.930;25.178;2024-02-28T15:11:05;15.60;1.00
11559;DHT22;5835;42.930;25.178;2024-02-28T15:13:32;15.60;1.00
11559;DHT22;5835;42.930;25.178;2024-02-28T15:16:00;15.60;1.00
11559;DHT22;5835;42.930;25.178;2024-02-28T15:18:29;15.60;1.00
11559;DHT22;5835;42.930;25.178;2024-02-28T15:20:56;15.50;1.00
11559;DHT22;5835;42.930;25.178;2024-02-28T15:23:25;15.40;1.00
11559;DHT22;5835;42.930;25.178;2024-02-28T15:25:52;15.20;1.00
11559;DHT22;5835;42.930;25.178;2024-02-28T15:28:20;15.10;1.00
11559;DHT22;5835;42.930;25.178;2024-02-28T15:30:49;15.00;1.00
11559;DHT22;5835;42.930;25.178;2024-02-28T15:33:17;15.00;1.00
11559;DHT22;5835;42.930;25.178;2024-02-28T15:35:46;14.90;1.00
11559;DHT22;5835;42.930;25.178;2024-02-28T15:38:13;14.80;1.00
11559;DHT22;5835;42.930;25.178;2024-02-28T15:40:41;14.80;1.00
11559;DHT22;5835;42.930;25.178;2024-02-28T15:43:09;14.70;1.00
11559;DHT22;5835;42.930;25.178;2024-02-28T15:45:36;14.60;1.00
11559;DHT22;5835;42.930;25.178;2024-02-28T15:48:05;14.60;1.00
11559;DHT22;5835;42.930;25.178;2024-02-28T15:50:34;14.40;1.00
11559;DHT22;5835;42.930;25.178;2024-02-28T15:53:03;14.40;1.00